createdAt,value
2023-05-06T00:03:25.869Z,98910.38
2023-05-06T00:08:17.647Z,98904.31
2023-05-06T00:13:09.546Z,98896.66
2023-05-06T00:18:01.564Z,98895.53
2023-05-06T00:22:53.381Z,98890.00
2023-05-06T00:27:45.042Z,98893.47
2023-05-06T00:32:36.723Z,98891.75
2023-05-06T00:37:28.302Z,98887.41
2023-05-06T00:42:22.591Z,98884.94
2023-05-06T00:47:14.287Z,98888.97
2023-05-06T00:52:06.101Z,98893.00
2023-05-06T00:56:57.771Z,98896.72
2023-05-06T01:01:49.401Z,98889.03
2023-05-06T01:06:49.903Z,98894.00
2023-05-06T01:11:48.892Z,98874.97
2023-05-06T01:16:41.551Z,98872.59
2023-05-06T01:21:34.957Z,98871.75
2023-05-06T01:26:27.450Z,98880.41
2023-05-06T01:31:27.299Z,98870.53
2023-05-06T01:36:33.481Z,98873.16
2023-05-06T01:41:25.519Z,98862.53
2023-05-06T01:46:20.262Z,98874.47
2023-05-06T01:51:12.020Z,98875.31
2023-05-06T01:56:03.742Z,98870.09
2023-05-06T02:00:55.313Z,98874.22
2023-05-06T02:05:46.905Z,98879.91
2023-05-06T02:10:38.550Z,98875.78
2023-05-06T02:15:30.219Z,98869.38
2023-05-06T02:20:21.944Z,98873.16
2023-05-06T02:25:13.618Z,98871.75
2023-05-06T02:30:06.647Z,98867.97
2023-05-06T02:34:58.315Z,98873.97
2023-05-06T02:39:49.870Z,98870.69
2023-05-06T02:44:41.725Z,98873.16
2023-05-06T02:49:33.342Z,98865.47
2023-05-06T02:54:27.262Z,98867.97
2023-05-06T02:59:18.874Z,98875.88
2023-05-06T03:04:10.749Z,98867.16
2023-05-06T03:09:02.375Z,98860.63
2023-05-06T03:13:54.038Z,98850.13
2023-05-06T03:18:45.575Z,98848.78
2023-05-06T03:23:37.204Z,98849.13
2023-05-06T03:28:28.784Z,98846.16
2023-05-06T03:33:20.511Z,98838.31
2023-05-06T03:38:12.207Z,98834.53
2023-05-06T03:43:03.773Z,98831.88
2023-05-06T03:47:55.643Z,98832.44
2023-05-06T03:52:47.301Z,98832.19
2023-05-06T03:57:38.929Z,98825.38
2023-05-06T04:02:30.826Z,98831.31
2023-05-06T04:07:22.623Z,98834.53
2023-05-06T04:12:14.220Z,98839.06
2023-05-06T04:17:05.787Z,98841.72
2023-05-06T04:21:58.590Z,98849.28
2023-05-06T04:26:50.496Z,98846.00
2023-05-06T04:31:42.334Z,98838.09
2023-05-06T04:36:34.359Z,98839.75
2023-05-06T04:41:26.100Z,98840.31
2023-05-06T04:46:17.780Z,98838.41
2023-05-06T04:51:09.453Z,98839.00
2023-05-06T04:56:01.106Z,98842.28
2023-05-06T05:00:52.674Z,98843.44
2023-05-06T05:05:44.302Z,98847.53
2023-05-06T05:10:36.165Z,98849.75
2023-05-06T05:15:27.807Z,98858.50
2023-05-06T05:20:19.382Z,98862.34
2023-05-06T05:25:11.094Z,98861.03
2023-05-06T05:30:02.865Z,98862.44
2023-05-06T05:34:54.531Z,98865.72
2023-05-06T05:39:46.120Z,98865.72
2023-05-06T05:44:37.798Z,98864.41
2023-05-06T05:49:29.793Z,98874.28
2023-05-06T05:54:21.403Z,98868.25
2023-05-06T05:59:13.043Z,98872.13
2023-05-06T06:04:05.176Z,98879.34
2023-05-06T06:08:56.997Z,98885.75
2023-05-06T06:13:48.578Z,98889.88
2023-05-06T06:18:40.112Z,98894.25
2023-05-06T06:23:31.746Z,98891.53
2023-05-06T06:28:23.371Z,98890.19
2023-05-06T06:33:15.065Z,98881.91
2023-05-06T06:38:06.621Z,98883.13
2023-05-06T06:42:58.189Z,98882.91
2023-05-06T06:47:50.169Z,98887.00
2023-05-06T06:52:41.898Z,98883.72
2023-05-06T06:57:33.459Z,98886.59
2023-05-06T07:02:25.059Z,98889.72
2023-05-06T07:07:16.700Z,98896.03
2023-05-06T07:12:08.290Z,98893.28
2023-05-06T07:17:01.027Z,98885.56
2023-05-06T07:21:52.992Z,98890.19
2023-05-06T07:26:44.955Z,98890.00
2023-05-06T07:31:36.657Z,98891.69
2023-05-06T07:36:28.851Z,98896.59
2023-05-06T07:41:21.077Z,98895.53
2023-05-06T07:46:12.698Z,98905.88
2023-05-06T07:51:04.645Z,98924.13
2023-05-06T07:56:01.916Z,98911.34
2023-05-06T08:00:53.647Z,98912.28
2023-05-06T08:05:45.230Z,98910.56
2023-05-06T08:10:36.821Z,98914.44
2023-05-06T08:15:28.436Z,98907.34
2023-05-06T08:20:20.243Z,98912.28
2023-05-06T08:25:12.100Z,98906.84
2023-05-06T08:30:04.347Z,98908.34
2023-05-06T08:34:56.133Z,98915.09
2023-05-06T08:39:47.799Z,98905.44
2023-05-06T08:44:39.708Z,98914.72
2023-05-06T08:49:31.600Z,98909.28
2023-05-06T08:54:26.602Z,98910.41
2023-05-06T08:59:23.744Z,98917.84
2023-05-06T09:04:16.575Z,98919.22
2023-05-06T09:09:08.162Z,98916.44
2023-05-06T09:14:14.431Z,98915.06
2023-05-06T09:19:06.591Z,98913.44
2023-05-06T09:23:59.283Z,98904.13
2023-05-06T09:28:51.493Z,98906.31
2023-05-06T09:33:43.043Z,98909.06
2023-05-06T09:38:34.624Z,98903.28
2023-05-06T09:43:26.869Z,98909.53
2023-05-06T09:48:18.920Z,98904.91
2023-05-06T09:53:12.199Z,98892.91
2023-05-06T09:58:05.584Z,98889.63
2023-05-06T10:02:58.872Z,98886.25
2023-05-06T10:07:53.393Z,98884.56
2023-05-06T10:12:46.292Z,98885.09
2023-05-06T10:17:39.893Z,98892.16
2023-05-06T10:22:55.323Z,98885.56
2023-05-06T10:27:48.312Z,98880.91
2023-05-06T10:32:43.122Z,98878.94
2023-05-06T10:37:36.094Z,98875.88
2023-05-06T10:42:30.452Z,98868.00
2023-05-06T10:47:22.471Z,98873.56
2023-05-06T10:52:14.946Z,98875.59
2023-05-06T10:57:10.889Z,98866.59
2023-05-06T11:02:02.402Z,98878.13
2023-05-06T11:06:54.178Z,98876.00
2023-05-06T11:12:11.693Z,98860.97
2023-05-06T11:17:08.978Z,98874.91
2023-05-06T11:22:02.740Z,98867.53
2023-05-06T11:26:55.962Z,98873.00
2023-05-06T11:31:47.984Z,98866.19
2023-05-06T11:36:48.233Z,98862.91
2023-05-06T11:41:40.969Z,98852.25
2023-05-06T11:46:33.630Z,98856.88
2023-05-06T11:51:25.930Z,98856.06
2023-05-06T11:56:17.539Z,98845.13
2023-05-06T12:01:09.868Z,98853.63
2023-05-06T12:06:01.713Z,98864.53
2023-05-06T12:10:55.946Z,98848.97
2023-05-06T12:15:49.790Z,98852.50
2023-05-06T12:20:41.530Z,98847.88
2023-05-06T12:25:33.302Z,98848.41
2023-05-06T12:30:31.959Z,98845.69
2023-05-06T12:35:30.896Z,98855.53
2023-05-06T12:40:22.561Z,98862.09
2023-05-06T12:45:15.408Z,98857.69
2023-05-06T12:50:07.573Z,98857.66
2023-05-06T12:55:01.592Z,98871.56
2023-05-06T12:59:53.827Z,98862.78
2023-05-06T13:04:46.896Z,98855.41
2023-05-06T13:09:38.804Z,98852.94
2023-05-06T13:14:30.654Z,98854.03
2023-05-06T13:19:32.472Z,98856.47
2023-05-06T13:24:25.161Z,98854.34
2023-05-06T13:29:16.797Z,98854.66
2023-05-06T13:34:08.408Z,98841.00
2023-05-06T13:39:00.564Z,98836.63
2023-05-06T13:43:52.466Z,98837.50
2023-05-06T13:48:44.074Z,98835.31
2023-05-06T13:53:35.714Z,98840.53
2023-05-06T13:58:27.278Z,98835.59
2023-05-06T14:03:18.874Z,98832.88
2023-05-06T14:08:10.614Z,98826.56
2023-05-06T14:13:02.745Z,98821.66
2023-05-06T14:17:55.617Z,98815.38
2023-05-06T14:22:48.124Z,98813.97
2023-05-06T14:27:39.803Z,98810.69
2023-05-06T14:32:32.568Z,98803.31
2023-05-06T14:37:24.237Z,98801.41
2023-05-06T14:42:16.186Z,98803.06
2023-05-06T14:47:07.843Z,98810.69
2023-05-06T14:51:59.520Z,98789.38
2023-05-06T14:56:51.427Z,98788.25
2023-05-06T15:01:43.158Z,98794.25
2023-05-06T15:06:34.941Z,98794.22
2023-05-06T15:11:26.661Z,98786.81
2023-05-06T15:16:18.236Z,98796.63
2023-05-06T15:21:10.041Z,98805.81
2023-05-06T15:27:32.087Z,98796.25
2023-05-06T15:32:23.953Z,98800.34
2023-05-06T15:37:19.207Z,98797.34
2023-05-06T15:42:11.065Z,98791.28
2023-05-06T15:47:03.284Z,98793.22
2023-05-06T15:51:54.881Z,98796.47
2023-05-06T15:56:46.641Z,98791.03
2023-05-06T16:06:32.859Z,98797.28
2023-05-06T16:11:24.482Z,98800.28
2023-05-06T16:16:16.155Z,98797.00
2023-05-06T16:21:08.082Z,98798.34
2023-05-06T16:26:01.238Z,98799.47
2023-05-06T16:30:52.874Z,98795.63
2023-05-06T16:35:45.844Z,98794.00
2023-05-06T16:40:42.676Z,98800.53
2023-05-06T16:45:34.438Z,98786.34
2023-05-06T16:50:26.167Z,98787.69
2023-05-06T16:55:17.738Z,98790.16
2023-05-06T17:00:12.229Z,98779.78
2023-05-06T17:05:04.571Z,98779.78
2023-05-06T17:09:56.280Z,98790.69
2023-05-06T17:14:47.836Z,98792.34
2023-05-06T17:19:39.419Z,98783.63
2023-05-06T17:24:31.001Z,98771.66
2023-05-06T17:29:22.704Z,98774.13
2023-05-06T17:34:14.523Z,98774.47
2023-05-06T17:39:06.295Z,98774.16
2023-05-06T17:43:57.974Z,98783.97
2023-05-06T17:48:49.680Z,98781.50
2023-05-06T17:53:41.582Z,98783.69
2023-05-06T17:58:33.314Z,98772.78
2023-05-06T18:03:25.059Z,98767.88
2023-05-06T18:08:16.702Z,98769.25
2023-05-06T18:13:08.668Z,98766.47
2023-05-06T18:18:00.380Z,98765.13
2023-05-06T18:22:52.218Z,98772.19
2023-05-06T18:27:43.881Z,98768.66
2023-05-06T18:32:35.796Z,98768.34
2023-05-06T18:37:30.667Z,98771.59
2023-05-06T18:42:23.198Z,98778.16
2023-05-06T18:47:14.824Z,98778.44
2023-05-06T18:52:06.721Z,98783.56
2023-05-06T18:56:58.804Z,98784.94
2023-05-06T19:01:50.836Z,98783.28
2023-05-06T19:06:42.598Z,98786.28
2023-05-06T19:11:34.974Z,98788.75
2023-05-06T19:16:26.664Z,98795.84
2023-05-06T19:21:18.769Z,98805.13
2023-05-06T19:26:13.640Z,98808.09
2023-05-06T19:31:12.048Z,98805.13
2023-05-06T19:36:04.393Z,98808.91
2023-05-06T19:40:56.427Z,98817.09
2023-05-06T19:45:48.289Z,98819.56
2023-05-06T19:50:40.276Z,98827.75
2023-05-06T19:55:32.154Z,98826.66
2023-05-06T20:00:25.541Z,98829.38
2023-05-06T20:05:17.150Z,98833.47
2023-05-06T20:10:10.107Z,98835.13
2023-05-06T20:15:03.709Z,98838.72
2023-05-06T20:19:58.564Z,98844.72
2023-05-06T20:24:51.145Z,98850.16
2023-05-06T20:29:42.822Z,98860.56
2023-05-06T20:34:34.691Z,98860.28
2023-05-06T20:39:26.394Z,98860.28
2023-05-06T20:44:17.990Z,98862.72
2023-05-06T20:49:09.586Z,98866.00
2023-05-06T20:54:01.371Z,98875.25
2023-05-06T20:58:54.064Z,98880.97
2023-05-06T21:03:48.917Z,98874.97
2023-05-06T21:08:40.692Z,98875.94
2023-05-06T21:13:32.620Z,98880.81
2023-05-06T21:18:24.426Z,98891.94
2023-05-06T21:23:18.121Z,98882.03
2023-05-06T21:28:09.817Z,98888.56
2023-05-06T21:33:02.399Z,98890.47
2023-05-06T21:37:54.058Z,98895.94
2023-05-06T21:42:45.903Z,98898.09
2023-05-06T21:47:37.603Z,98892.91
2023-05-06T21:52:29.629Z,98901.66
2023-05-06T21:57:21.317Z,98904.38
2023-05-06T22:02:13.089Z,98901.66
2023-05-06T22:07:04.902Z,98914.13
2023-05-06T22:11:56.603Z,98913.03
2023-05-06T22:16:48.810Z,98919.56
2023-05-06T22:21:41.451Z,98925.00
2023-05-06T22:26:33.274Z,98925.56
2023-05-06T22:31:25.267Z,98920.09
2023-05-06T22:36:16.928Z,98921.97
2023-05-06T22:41:10.289Z,98921.91
2023-05-06T22:46:02.237Z,98933.59
2023-05-06T22:50:53.844Z,98929.75
2023-05-06T22:55:45.513Z,98932.41
2023-05-06T23:00:37.273Z,98947.91
2023-05-06T23:05:28.912Z,98944.03
2023-05-06T23:10:20.628Z,98942.88
2023-05-06T23:15:12.531Z,98952.41
2023-05-06T23:20:04.508Z,98953.72
2023-05-06T23:24:56.259Z,98958.75
2023-05-06T23:29:47.897Z,98964.72
2023-05-06T23:34:39.847Z,98967.13
2023-05-06T23:39:31.478Z,98960.88
2023-05-06T23:44:23.130Z,98964.41
2023-05-06T23:49:15.267Z,98964.09
2023-05-06T23:54:06.846Z,98968.69
2023-05-06T23:58:58.469Z,98976.13
